sensor_id;sensor_type;location;lat;lon;timestamp;pressure;altitude;pressure_sealevel;temperature;humidity
51603;BME280;37954;51.980;5.850;2024-03-08T00:00:18;101559.88;;;4.31;81.02
51603;BME280;37954;51.980;5.850;2024-03-08T00:04:31;101555.53;;;4.30;81.37
51603;BME280;37954;51.980;5.850;2024-03-08T00:08:43;101549.53;;;4.28;81.53
51603;BME280;37954;51.980;5.850;2024-03-08T00:12:55;101528.09;;;4.22;80.75
51603;BME280;37954;51.980;5.850;2024-03-08T00:17:06;101532.09;;;4.26;81.20
51603;BME280;37954;51.980;5.850;2024-03-08T00:21:18;101560.97;;;4.20;81.00
51603;BME280;37954;51.980;5.850;2024-03-08T00:25:30;101547.16;;;4.17;80.49
51603;BME280;37954;51.980;5.850;2024-03-08T00:29:42;101535.53;;;4.18;80.65
51603;BME280;37954;51.980;5.850;2024-03-08T00:33:54;101533.72;;;4.10;80.67
51603;BME280;37954;51.980;5.850;2024-03-08T00:38:31;101527.41;;;4.11;80.21
51603;BME280;37954;51.980;5.850;2024-03-08T00:42:43;101520.38;;;4.02;79.80
51603;BME280;37954;51.980;5.850;2024-03-08T00:46:55;101532.34;;;4.06;80.41
51603;BME280;37954;51.980;5.850;2024-03-08T00:51:07;101523.34;;;3.99;80.03
51603;BME280;37954;51.980;5.850;2024-03-08T00:55:20;101510.56;;;3.95;79.76
51603;BME280;37954;51.980;5.850;2024-03-08T00:59:32;101510.88;;;3.92;79.35
51603;BME280;37954;51.980;5.850;2024-03-08T01:03:46;101507.56;;;3.90;79.48
51603;BME280;37954;51.980;5.850;2024-03-08T01:07:59;101483.94;;;3.87;79.54
51603;BME280;37954;51.980;5.850;2024-03-08T01:12:11;101487.75;;;3.84;79.35
51603;BME280;37954;51.980;5.850;2024-03-08T01:16:23;101475.81;;;3.80;78.89
51603;BME280;37954;51.980;5.850;2024-03-08T01:20:34;101473.47;;;3.77;78.79
51603;BME280;37954;51.980;5.850;2024-03-08T01:24:46;101461.66;;;3.71;78.57
51603;BME280;37954;51.980;5.850;2024-03-08T01:28:58;101458.78;;;3.65;78.25
51603;BME280;37954;51.980;5.850;2024-03-08T01:33:10;101447.69;;;3.69;78.50
51603;BME280;37954;51.980;5.850;2024-03-08T01:37:22;101439.34;;;3.64;77.78
51603;BME280;37954;51.980;5.850;2024-03-08T01:41:34;101453.00;;;3.69;77.71
51603;BME280;37954;51.980;5.850;2024-03-08T01:45:47;101451.50;;;3.67;77.73
51603;BME280;37954;51.980;5.850;2024-03-08T01:49:59;101442.53;;;3.60;77.38
51603;BME280;37954;51.980;5.850;2024-03-08T01:54:14;101445.50;;;3.57;77.09
51603;BME280;37954;51.980;5.850;2024-03-08T01:58:28;101450.66;;;3.58;77.15
51603;BME280;37954;51.980;5.850;2024-03-08T02:02:42;101426.84;;;3.48;76.41
51603;BME280;37954;51.980;5.850;2024-03-08T02:06:54;101438.66;;;3.46;76.92
51603;BME280;37954;51.980;5.850;2024-03-08T02:11:06;101416.88;;;3.42;76.64
51603;BME280;37954;51.980;5.850;2024-03-08T02:15:18;101427.16;;;3.37;77.12
51603;BME280;37954;51.980;5.850;2024-03-08T02:19:30;101424.81;;;3.34;76.40
51603;BME280;37954;51.980;5.850;2024-03-08T02:23:41;101419.31;;;3.28;76.35
51603;BME280;37954;51.980;5.850;2024-03-08T02:27:53;101408.03;;;3.26;76.08
51603;BME280;37954;51.980;5.850;2024-03-08T02:32:05;101395.38;;;3.20;76.37
51603;BME280;37954;51.980;5.850;2024-03-08T02:36:17;101409.47;;;3.20;76.83
51603;BME280;37954;51.980;5.850;2024-03-08T02:40:29;101401.16;;;3.15;76.25
51603;BME280;37954;51.980;5.850;2024-03-08T02:44:44;101384.53;;;3.05;77.07
51603;BME280;37954;51.980;5.850;2024-03-08T02:48:56;101394.47;;;3.03;77.22
51603;BME280;37954;51.980;5.850;2024-03-08T02:53:08;101386.13;;;2.98;76.63
51603;BME280;37954;51.980;5.850;2024-03-08T02:57:20;101379.66;;;2.92;77.09
51603;BME280;37954;51.980;5.850;2024-03-08T03:01:33;101386.78;;;2.92;77.18
51603;BME280;37954;51.980;5.850;2024-03-08T03:05:44;101375.13;;;2.85;77.15
51603;BME280;37954;51.980;5.850;2024-03-08T03:10:00;101369.31;;;2.81;77.30
51603;BME280;37954;51.980;5.850;2024-03-08T03:14:12;101371.81;;;2.83;77.38
51603;BME280;37954;51.980;5.850;2024-03-08T03:18:23;101367.16;;;2.76;77.59
51603;BME280;37954;51.980;5.850;2024-03-08T03:22:37;101357.16;;;2.70;77.59
51603;BME280;37954;51.980;5.850;2024-03-08T03:26:49;101362.00;;;2.75;77.91
51603;BME280;37954;51.980;5.850;2024-03-08T03:31:01;101361.31;;;2.73;77.37
51603;BME280;37954;51.980;5.850;2024-03-08T03:35:14;101359.78;;;2.70;77.77
51603;BME280;37954;51.980;5.850;2024-03-08T03:39:26;101354.44;;;2.62;77.67
51603;BME280;37954;51.980;5.850;2024-03-08T03:43:42;101358.59;;;2.65;77.93
51603;BME280;37954;51.980;5.850;2024-03-08T03:47:54;101354.09;;;2.57;78.19
51603;BME280;37954;51.980;5.850;2024-03-08T03:52:05;101353.75;;;2.60;78.02
51603;BME280;37954;51.980;5.850;2024-03-08T03:56:17;101342.75;;;2.47;78.32
51603;BME280;37954;51.980;5.850;2024-03-08T04:00:29;101342.44;;;2.50;78.37
51603;BME280;37954;51.980;5.850;2024-03-08T04:04:40;101344.25;;;2.50;78.74
51603;BME280;37954;51.980;5.850;2024-03-08T04:08:52;101336.75;;;2.45;78.12
51603;BME280;37954;51.980;5.850;2024-03-08T04:13:04;101326.50;;;2.42;78.49
51603;BME280;37954;51.980;5.850;2024-03-08T04:17:15;101324.13;;;2.39;78.75
51603;BME280;37954;51.980;5.850;2024-03-08T04:21:30;101335.09;;;2.44;79.02
51603;BME280;37954;51.980;5.850;2024-03-08T04:25:41;101315.66;;;2.35;78.67
51603;BME280;37954;51.980;5.850;2024-03-08T04:29:53;101308.84;;;2.33;78.96
51603;BME280;37954;51.980;5.850;2024-03-08T04:34:05;101317.78;;;2.32;79.08
51603;BME280;37954;51.980;5.850;2024-03-08T04:38:17;101315.44;;;2.29;79.01
51603;BME280;37954;51.980;5.850;2024-03-08T04:42:29;101310.50;;;2.34;78.88
51603;BME280;37954;51.980;5.850;2024-03-08T04:46:41;101305.31;;;2.24;79.17
51603;BME280;37954;51.980;5.850;2024-03-08T04:50:53;101296.34;;;2.25;79.37
51603;BME280;37954;51.980;5.850;2024-03-08T04:55:05;101299.19;;;2.24;79.19
51603;BME280;37954;51.980;5.850;2024-03-08T04:59:17;101308.81;;;2.25;79.22
51603;BME280;37954;51.980;5.850;2024-03-08T05:03:29;101307.44;;;2.21;79.29
51603;BME280;37954;51.980;5.850;2024-03-08T05:07:41;101301.47;;;2.19;79.49
51603;BME280;37954;51.980;5.850;2024-03-08T05:11:55;101294.50;;;2.18;79.53
51603;BME280;37954;51.980;5.850;2024-03-08T05:16:06;101287.69;;;2.15;79.55
51603;BME280;37954;51.980;5.850;2024-03-08T05:20:19;101287.38;;;2.18;79.58
51603;BME280;37954;51.980;5.850;2024-03-08T05:24:31;101285.72;;;2.17;79.46
51603;BME280;37954;51.980;5.850;2024-03-08T05:28:43;101296.31;;;2.17;79.47
51603;BME280;37954;51.980;5.850;2024-03-08T05:32:55;101305.09;;;2.18;79.55
51603;BME280;37954;51.980;5.850;2024-03-08T05:37:08;101298.97;;;2.17;79.57
51603;BME280;37954;51.980;5.850;2024-03-08T05:41:20;101281.72;;;2.13;79.45
51603;BME280;37954;51.980;5.850;2024-03-08T05:45:31;101281.72;;;2.13;79.46
51603;BME280;37954;51.980;5.850;2024-03-08T05:49:43;101261.16;;;2.07;79.61
51603;BME280;37954;51.980;5.850;2024-03-08T05:53:56;101257.47;;;2.08;79.48
51603;BME280;37954;51.980;5.850;2024-03-08T05:58:08;101287.69;;;2.15;79.89
51603;BME280;37954;51.980;5.850;2024-03-08T06:02:20;101265.44;;;2.08;79.31
51603;BME280;37954;51.980;5.850;2024-03-08T06:06:32;101259.16;;;2.09;79.58
51603;BME280;37954;51.980;5.850;2024-03-08T06:10:44;101260.97;;;2.08;79.30
51603;BME280;37954;51.980;5.850;2024-03-08T06:14:56;101268.16;;;2.16;79.62
51603;BME280;37954;51.980;5.850;2024-03-08T06:19:07;101249.38;;;2.09;79.55
51603;BME280;37954;51.980;5.850;2024-03-08T06:23:19;101269.41;;;2.30;79.60
51603;BME280;37954;51.980;5.850;2024-03-08T06:27:31;101241.97;;;2.39;79.09
51603;BME280;37954;51.980;5.850;2024-03-08T06:31:45;101255.09;;;2.49;79.10
51603;BME280;37954;51.980;5.850;2024-03-08T06:35:57;101255.97;;;2.57;78.94
51603;BME280;37954;51.980;5.850;2024-03-08T06:40:09;101238.41;;;2.56;78.68
51603;BME280;37954;51.980;5.850;2024-03-08T06:44:25;101239.41;;;2.63;78.88
51603;BME280;37954;51.980;5.850;2024-03-08T06:48:37;101228.16;;;2.69;78.03
51603;BME280;37954;51.980;5.850;2024-03-08T06:52:49;101237.38;;;2.99;77.89
51603;BME280;37954;51.980;5.850;2024-03-08T06:57:05;101241.09;;;3.31;77.44
51603;BME280;37954;51.980;5.850;2024-03-08T07:01:16;101248.44;;;3.45;76.61
51603;BME280;37954;51.980;5.850;2024-03-08T07:05:29;101254.06;;;3.42;76.09
51603;BME280;37954;51.980;5.850;2024-03-08T07:09:44;101240.97;;;3.40;75.58
51603;BME280;37954;51.980;5.850;2024-03-08T07:13:56;101228.31;;;3.34;75.23
51603;BME280;37954;51.980;5.850;2024-03-08T07:18:09;101236.31;;;3.42;75.45
51603;BME280;37954;51.980;5.850;2024-03-08T07:22:26;101242.78;;;3.48;75.19
51603;BME280;37954;51.980;5.850;2024-03-08T07:26:37;101222.72;;;3.54;75.06
51603;BME280;37954;51.980;5.850;2024-03-08T07:30:50;101243.47;;;3.66;74.75
51603;BME280;37954;51.980;5.850;2024-03-08T07:35:12;101226.69;;;3.66;74.82
51603;BME280;37954;51.980;5.850;2024-03-08T07:39:24;101223.03;;;3.75;74.56
51603;BME280;37954;51.980;5.850;2024-03-08T07:43:36;101222.38;;;3.89;74.46
51603;BME280;37954;51.980;5.850;2024-03-08T07:47:48;101218.22;;;3.95;73.84
51603;BME280;37954;51.980;5.850;2024-03-08T07:51:59;101219.34;;;4.08;73.23
51603;BME280;37954;51.980;5.850;2024-03-08T07:56:11;101207.69;;;4.17;73.07
51603;BME280;37954;51.980;5.850;2024-03-08T08:00:25;101202.66;;;4.78;73.49
51603;BME280;37954;51.980;5.850;2024-03-08T08:04:38;101206.19;;;6.07;73.91
51603;BME280;37954;51.980;5.850;2024-03-08T08:08:50;101207.91;;;7.24;70.52
51603;BME280;37954;51.980;5.850;2024-03-08T08:13:02;101196.84;;;8.04;66.92
51603;BME280;37954;51.980;5.850;2024-03-08T08:17:16;101202.88;;;8.89;63.99
51603;BME280;37954;51.980;5.850;2024-03-08T08:21:28;101186.94;;;9.35;61.82
51603;BME280;37954;51.980;5.850;2024-03-08T08:25:39;101179.69;;;10.08;59.98
51603;BME280;37954;51.980;5.850;2024-03-08T08:29:51;101172.63;;;10.46;57.84
51603;BME280;37954;51.980;5.850;2024-03-08T08:34:03;101181.63;;;10.72;56.80
51603;BME280;37954;51.980;5.850;2024-03-08T08:38:14;101165.16;;;11.00;54.42
51603;BME280;37954;51.980;5.850;2024-03-08T08:42:26;101162.34;;;11.44;53.95
51603;BME280;37954;51.980;5.850;2024-03-08T08:46:40;101158.00;;;11.75;52.21
51603;BME280;37954;51.980;5.850;2024-03-08T08:50:52;101153.88;;;12.15;51.04
51603;BME280;37954;51.980;5.850;2024-03-08T08:55:05;101147.22;;;12.36;50.62
51603;BME280;37954;51.980;5.850;2024-03-08T08:59:17;101146.81;;;12.69;49.87
51603;BME280;37954;51.980;5.850;2024-03-08T09:03:34;101139.53;;;12.88;48.21
51603;BME280;37954;51.980;5.850;2024-03-08T09:07:46;101134.09;;;12.76;46.90
51603;BME280;37954;51.980;5.850;2024-03-08T09:11:58;101122.53;;;12.87;47.09
51603;BME280;37954;51.980;5.850;2024-03-08T09:16:16;101124.34;;;13.05;46.13
51603;BME280;37954;51.980;5.850;2024-03-08T09:20:27;101118.13;;;13.46;46.39
51603;BME280;37954;51.980;5.850;2024-03-08T09:24:40;101118.16;;;13.81;45.21
51603;BME280;37954;51.980;5.850;2024-03-08T09:28:52;101104.09;;;14.43;45.61
51603;BME280;37954;51.980;5.850;2024-03-08T09:33:05;101098.50;;;14.89;44.82
51603;BME280;37954;51.980;5.850;2024-03-08T09:37:17;101103.06;;;15.34;43.44
51603;BME280;37954;51.980;5.850;2024-03-08T09:41:29;101090.25;;;15.13;42.39
51603;BME280;37954;51.980;5.850;2024-03-08T09:45:43;101085.50;;;15.03;42.02
51603;BME280;37954;51.980;5.850;2024-03-08T09:49:56;101073.50;;;14.82;41.80
51603;BME280;37954;51.980;5.850;2024-03-08T09:54:08;101069.66;;;14.95;41.83
51603;BME280;37954;51.980;5.850;2024-03-08T09:58:30;101060.97;;;15.10;41.59
51603;BME280;37954;51.980;5.850;2024-03-08T10:02:42;101066.81;;;15.02;41.41
51603;BME280;37954;51.980;5.850;2024-03-08T10:06:53;101052.78;;;15.05;41.45
51603;BME280;37954;51.980;5.850;2024-03-08T10:11:06;101052.28;;;15.08;41.42
51603;BME280;37954;51.980;5.850;2024-03-08T10:15:18;101049.41;;;15.31;41.13
51603;BME280;37954;51.980;5.850;2024-03-08T10:19:31;101034.72;;;15.44;40.72
51603;BME280;37954;51.980;5.850;2024-03-08T10:23:44;101021.03;;;15.33;40.52
51603;BME280;37954;51.980;5.850;2024-03-08T10:27:56;101017.28;;;15.35;40.48
51603;BME280;37954;51.980;5.850;2024-03-08T10:32:08;101023.97;;;15.65;40.73
51603;BME280;37954;51.980;5.850;2024-03-08T10:36:20;100999.78;;;15.81;40.73
51603;BME280;37954;51.980;5.850;2024-03-08T10:40:31;100998.25;;;16.12;40.17
51603;BME280;37954;51.980;5.850;2024-03-08T10:45:03;100997.47;;;15.89;39.48
51603;BME280;37954;51.980;5.850;2024-03-08T10:49:22;100978.81;;;15.71;39.65
51603;BME280;37954;51.980;5.850;2024-03-08T10:53:37;100980.75;;;15.97;39.62
51603;BME280;37954;51.980;5.850;2024-03-08T10:57:52;100960.16;;;15.96;39.35
51603;BME280;37954;51.980;5.850;2024-03-08T11:02:05;100959.88;;;15.93;39.52
51603;BME280;37954;51.980;5.850;2024-03-08T11:06:23;100955.69;;;16.07;39.29
51603;BME280;37954;51.980;5.850;2024-03-08T11:10:46;100934.59;;;15.65;39.09
51603;BME280;37954;51.980;5.850;2024-03-08T11:15:11;100932.72;;;15.11;39.29
51603;BME280;37954;51.980;5.850;2024-03-08T11:19:25;100929.28;;;15.15;40.00
51603;BME280;37954;51.980;5.850;2024-03-08T11:23:38;100910.94;;;15.01;39.71
51603;BME280;37954;51.980;5.850;2024-03-08T11:28:06;100907.19;;;14.85;39.96
51603;BME280;37954;51.980;5.850;2024-03-08T11:32:19;100898.91;;;14.75;39.98
51603;BME280;37954;51.980;5.850;2024-03-08T11:36:34;100889.03;;;14.47;39.95
51603;BME280;37954;51.980;5.850;2024-03-08T11:40:48;100881.06;;;14.40;40.24
51603;BME280;37954;51.980;5.850;2024-03-08T11:45:08;100893.69;;;14.23;40.43
51603;BME280;37954;51.980;5.850;2024-03-08T11:49:20;100871.00;;;14.07;40.76
51603;BME280;37954;51.980;5.850;2024-03-08T11:53:32;100873.31;;;14.15;40.87
51603;BME280;37954;51.980;5.850;2024-03-08T11:57:43;100849.63;;;14.06;41.11
51603;BME280;37954;51.980;5.850;2024-03-08T12:02:03;100860.88;;;14.14;40.80
51603;BME280;37954;51.980;5.850;2024-03-08T12:06:15;100845.06;;;14.06;39.84
51603;BME280;37954;51.980;5.850;2024-03-08T12:10:27;100851.38;;;14.12;39.75
51603;BME280;37954;51.980;5.850;2024-03-08T12:14:43;100860.88;;;14.14;39.79
51603;BME280;37954;51.980;5.850;2024-03-08T12:18:58;100836.56;;;14.14;39.70
51603;BME280;37954;51.980;5.850;2024-03-08T12:23:14;100834.44;;;14.16;39.72
51603;BME280;37954;51.980;5.850;2024-03-08T12:27:26;100809.78;;;14.29;40.46
51603;BME280;37954;51.980;5.850;2024-03-08T12:31:41;100810.78;;;14.40;39.68
51603;BME280;37954;51.980;5.850;2024-03-08T12:35:55;100826.56;;;14.32;39.79
51603;BME280;37954;51.980;5.850;2024-03-08T12:40:09;100806.66;;;14.04;39.56
51603;BME280;37954;51.980;5.850;2024-03-08T12:44:21;100798.50;;;13.71;39.67
51603;BME280;37954;51.980;5.850;2024-03-08T12:48:36;100796.53;;;13.38;40.29
51603;BME280;37954;51.980;5.850;2024-03-08T12:52:52;100785.94;;;13.08;41.08
51603;BME280;37954;51.980;5.850;2024-03-08T12:57:07;100777.06;;;12.96;41.58
51603;BME280;37954;51.980;5.850;2024-03-08T13:01:19;100768.75;;;12.85;42.25
51603;BME280;37954;51.980;5.850;2024-03-08T13:05:31;100788.56;;;12.68;42.24
51603;BME280;37954;51.980;5.850;2024-03-08T13:09:42;100779.31;;;12.52;42.91
51603;BME280;37954;51.980;5.850;2024-03-08T13:13:54;100748.16;;;12.56;43.28
51603;BME280;37954;51.980;5.850;2024-03-08T13:18:06;100747.91;;;12.69;43.43
51603;BME280;37954;51.980;5.850;2024-03-08T13:22:20;100738.47;;;12.43;43.24
51603;BME280;37954;51.980;5.850;2024-03-08T13:26:34;100750.06;;;12.20;43.47
51603;BME280;37954;51.980;5.850;2024-03-08T13:30:46;100735.19;;;11.95;44.16
51603;BME280;37954;51.980;5.850;2024-03-08T13:34:57;100740.31;;;11.96;44.30
51603;BME280;37954;51.980;5.850;2024-03-08T13:39:09;100732.91;;;11.80;44.94
51603;BME280;37954;51.980;5.850;2024-03-08T13:43:27;100714.66;;;11.82;45.22
51603;BME280;37954;51.980;5.850;2024-03-08T13:47:40;100709.41;;;11.87;45.47
51603;BME280;37954;51.980;5.850;2024-03-08T13:51:52;100700.97;;;11.83;45.82
51603;BME280;37954;51.980;5.850;2024-03-08T13:56:06;100701.19;;;11.82;45.75
51603;BME280;37954;51.980;5.850;2024-03-08T14:00:18;100692.22;;;11.76;45.64
51603;BME280;37954;51.980;5.850;2024-03-08T14:04:33;100674.25;;;11.59;45.54
51603;BME280;37954;51.980;5.850;2024-03-08T14:08:46;100679.38;;;11.60;46.13
51603;BME280;37954;51.980;5.850;2024-03-08T14:12:58;100675.16;;;11.52;45.88
51603;BME280;37954;51.980;5.850;2024-03-08T14:17:09;100660.66;;;11.54;46.09
51603;BME280;37954;51.980;5.850;2024-03-08T14:21:22;100640.75;;;11.43;46.40
51603;BME280;37954;51.980;5.850;2024-03-08T14:25:34;100637.97;;;11.49;46.32
51603;BME280;37954;51.980;5.850;2024-03-08T14:29:53;100617.34;;;11.43;46.27
51603;BME280;37954;51.980;5.850;2024-03-08T14:34:06;100629.97;;;11.43;46.75
51603;BME280;37954;51.980;5.850;2024-03-08T14:38:18;100611.66;;;11.40;46.73
51603;BME280;37954;51.980;5.850;2024-03-08T14:42:30;100616.53;;;11.43;46.86
51603;BME280;37954;51.980;5.850;2024-03-08T14:46:41;100605.00;;;11.42;47.05
51603;BME280;37954;51.980;5.850;2024-03-08T14:50:55;100594.47;;;11.41;47.39
51603;BME280;37954;51.980;5.850;2024-03-08T14:55:06;100591.41;;;11.37;47.49
51603;BME280;37954;51.980;5.850;2024-03-08T14:59:18;100582.38;;;11.32;47.14
51603;BME280;37954;51.980;5.850;2024-03-08T15:03:31;100555.28;;;11.22;47.55
51603;BME280;37954;51.980;5.850;2024-03-08T15:07:43;100566.47;;;11.19;47.47
51603;BME280;37954;51.980;5.850;2024-03-08T15:11:56;100546.13;;;11.11;47.89
51603;BME280;37954;51.980;5.850;2024-03-08T15:16:08;100555.34;;;11.15;47.89
51603;BME280;37954;51.980;5.850;2024-03-08T15:20:26;100562.00;;;11.12;48.09
51603;BME280;37954;51.980;5.850;2024-03-08T15:24:42;100536.78;;;11.13;48.37
51603;BME280;37954;51.980;5.850;2024-03-08T15:28:54;100529.66;;;11.07;48.56
51603;BME280;37954;51.980;5.850;2024-03-08T15:33:07;100535.72;;;11.03;48.40
51603;BME280;37954;51.980;5.850;2024-03-08T15:37:22;100520.72;;;10.95;48.48
51603;BME280;37954;51.980;5.850;2024-03-08T15:41:37;100525.75;;;10.92;48.98
51603;BME280;37954;51.980;5.850;2024-03-08T15:45:48;100518.16;;;10.89;48.79
51603;BME280;37954;51.980;5.850;2024-03-08T15:50:00;100508.34;;;10.82;48.73
51603;BME280;37954;51.980;5.850;2024-03-08T15:54:15;100507.59;;;10.75;48.88
51603;BME280;37954;51.980;5.850;2024-03-08T15:58:27;100510.41;;;10.69;49.14
51603;BME280;37954;51.980;5.850;2024-03-08T16:02:39;100494.00;;;10.59;48.87
51603;BME280;37954;51.980;5.850;2024-03-08T16:06:52;100511.16;;;10.58;49.18
51603;BME280;37954;51.980;5.850;2024-03-08T16:11:04;100496.31;;;10.43;49.16
51603;BME280;37954;51.980;5.850;2024-03-08T16:15:18;100485.78;;;10.42;49.25
51603;BME280;37954;51.980;5.850;2024-03-08T16:19:31;100481.78;;;10.33;49.46
51603;BME280;37954;51.980;5.850;2024-03-08T16:23:43;100454.50;;;10.18;49.40
51603;BME280;37954;51.980;5.850;2024-03-08T16:27:55;100481.16;;;10.19;49.85
51603;BME280;37954;51.980;5.850;2024-03-08T16:32:07;100481.97;;;10.20;49.82
51603;BME280;37954;51.980;5.850;2024-03-08T16:36:19;100462.00;;;9.97;50.15
51603;BME280;37954;51.980;5.850;2024-03-08T16:40:30;100456.88;;;9.96;50.15
51603;BME280;37954;51.980;5.850;2024-03-08T16:44:42;100462.91;;;9.91;50.40
51603;BME280;37954;51.980;5.850;2024-03-08T16:48:54;100477.81;;;9.87;50.89
51603;BME280;37954;51.980;5.850;2024-03-08T16:53:06;100479.91;;;9.85;50.84
51603;BME280;37954;51.980;5.850;2024-03-08T16:57:17;100494.00;;;9.81;51.15
51603;BME280;37954;51.980;5.850;2024-03-08T17:01:29;100475.59;;;9.66;51.29
51603;BME280;37954;51.980;5.850;2024-03-08T17:05:41;100462.03;;;9.61;51.65
51603;BME280;37954;51.980;5.850;2024-03-08T17:10:06;100465.47;;;9.50;51.88
51603;BME280;37954;51.980;5.850;2024-03-08T17:14:26;100481.34;;;9.51;52.52
51603;BME280;37954;51.980;5.850;2024-03-08T17:18:40;100456.28;;;9.39;52.73
51603;BME280;37954;51.980;5.850;2024-03-08T17:22:54;100468.56;;;9.28;52.61
51603;BME280;37954;51.980;5.850;2024-03-08T17:27:07;100471.47;;;9.27;53.38
51603;BME280;37954;51.980;5.850;2024-03-08T17:31:18;100443.81;;;9.08;53.47
51603;BME280;37954;51.980;5.850;2024-03-08T17:35:33;100463.38;;;9.08;53.73
51603;BME280;37954;51.980;5.850;2024-03-08T17:39:46;100443.34;;;8.93;54.02
51603;BME280;37954;51.980;5.850;2024-03-08T17:43:57;100480.72;;;9.06;53.98
51603;BME280;37954;51.980;5.850;2024-03-08T17:48:09;100464.78;;;8.93;54.12
51603;BME280;37954;51.980;5.850;2024-03-08T17:52:25;100462.97;;;8.87;54.58
51603;BME280;37954;51.980;5.850;2024-03-08T17:56:37;100458.53;;;8.74;54.85
51603;BME280;37954;51.980;5.850;2024-03-08T18:00:50;100472.31;;;8.78;55.16
51603;BME280;37954;51.980;5.850;2024-03-08T18:05:03;100458.97;;;8.71;55.25
51603;BME280;37954;51.980;5.850;2024-03-08T18:09:17;100463.94;;;8.67;55.41
51603;BME280;37954;51.980;5.850;2024-03-08T18:13:34;100458.78;;;8.66;55.90
51603;BME280;37954;51.980;5.850;2024-03-08T18:17:47;100448.56;;;8.56;55.89
51603;BME280;37954;51.980;5.850;2024-03-08T18:22:00;100451.06;;;8.51;56.34
51603;BME280;37954;51.980;5.850;2024-03-08T18:26:13;100461.19;;;8.49;56.41
51603;BME280;37954;51.980;5.850;2024-03-08T18:30:25;100458.97;;;8.46;56.80
51603;BME280;37954;51.980;5.850;2024-03-08T18:34:38;100449.91;;;8.47;56.82
51603;BME280;37954;51.980;5.850;2024-03-08T18:38:54;100449.50;;;8.44;57.00
51603;BME280;37954;51.980;5.850;2024-03-08T18:43:08;100439.84;;;8.36;57.23
51603;BME280;37954;51.980;5.850;2024-03-08T18:47:22;100423.88;;;8.23;57.36
51603;BME280;37954;51.980;5.850;2024-03-08T18:51:34;100429.44;;;8.21;57.69
51603;BME280;37954;51.980;5.850;2024-03-08T18:55:47;100432.09;;;8.21;57.91
51603;BME280;37954;51.980;5.850;2024-03-08T19:00:00;100429.25;;;8.16;57.83
51603;BME280;37954;51.980;5.850;2024-03-08T19:04:12;100434.59;;;8.16;58.40
51603;BME280;37954;51.980;5.850;2024-03-08T19:08:24;100421.69;;;8.07;58.54
51603;BME280;37954;51.980;5.850;2024-03-08T19:12:40;100407.72;;;8.04;58.62
51603;BME280;37954;51.980;5.850;2024-03-08T19:16:55;100408.97;;;8.02;58.96
51603;BME280;37954;51.980;5.850;2024-03-08T19:21:07;100405.94;;;7.92;59.30
51603;BME280;37954;51.980;5.850;2024-03-08T19:25:23;100410.69;;;7.90;59.53
51603;BME280;37954;51.980;5.850;2024-03-08T19:29:38;100404.72;;;7.88;59.63
51603;BME280;37954;51.980;5.850;2024-03-08T19:33:51;100398.56;;;7.87;59.71
51603;BME280;37954;51.980;5.850;2024-03-08T19:38:03;100387.88;;;7.87;59.89
51603;BME280;37954;51.980;5.850;2024-03-08T19:42:18;100381.13;;;7.78;60.06
51603;BME280;37954;51.980;5.850;2024-03-08T19:46:31;100371.31;;;7.65;60.16
51603;BME280;37954;51.980;5.850;2024-03-08T19:50:52;100392.47;;;7.74;60.22
51603;BME280;37954;51.980;5.850;2024-03-08T19:55:04;100372.56;;;7.63;60.81
51603;BME280;37954;51.980;5.850;2024-03-08T19:59:16;100380.34;;;7.64;60.96
51603;BME280;37954;51.980;5.850;2024-03-08T20:03:27;100385.91;;;7.63;61.16
51603;BME280;37954;51.980;5.850;2024-03-08T20:07:41;100378.78;;;7.57;60.92
51603;BME280;37954;51.980;5.850;2024-03-08T20:11:53;100380.63;;;7.56;61.21
51603;BME280;37954;51.980;5.850;2024-03-08T20:16:07;100386.59;;;7.52;61.25
51603;BME280;37954;51.980;5.850;2024-03-08T20:20:21;100385.56;;;7.53;61.63
51603;BME280;37954;51.980;5.850;2024-03-08T20:24:33;100380.03;;;7.48;61.88
51603;BME280;37954;51.980;5.850;2024-03-08T20:28:45;100365.06;;;7.40;61.72
51603;BME280;37954;51.980;5.850;2024-03-08T20:32:58;100361.16;;;7.43;62.30
51603;BME280;37954;51.980;5.850;2024-03-08T20:37:11;100376.31;;;7.49;62.07
51603;BME280;37954;51.980;5.850;2024-03-08T20:41:25;100362.38;;;7.40;62.35
51603;BME280;37954;51.980;5.850;2024-03-08T20:45:38;100349.44;;;7.37;62.51
51603;BME280;37954;51.980;5.850;2024-03-08T20:49:50;100347.41;;;7.32;62.59
51603;BME280;37954;51.980;5.850;2024-03-08T20:54:03;100354.41;;;7.33;62.77
51603;BME280;37954;51.980;5.850;2024-03-08T20:58:16;100342.69;;;7.34;63.32
51603;BME280;37954;51.980;5.850;2024-03-08T21:02:29;100337.78;;;7.25;63.06
51603;BME280;37954;51.980;5.850;2024-03-08T21:06:44;100335.75;;;7.20;63.41
51603;BME280;37954;51.980;5.850;2024-03-08T21:10:56;100333.06;;;7.20;63.87
51603;BME280;37954;51.980;5.850;2024-03-08T21:15:09;100334.31;;;7.18;63.75
51603;BME280;37954;51.980;5.850;2024-03-08T21:19:21;100316.28;;;7.07;64.09
51603;BME280;37954;51.980;5.850;2024-03-08T21:23:33;100313.63;;;7.07;64.26
51603;BME280;37954;51.980;5.850;2024-03-08T21:27:45;100316.28;;;7.07;64.67
51603;BME280;37954;51.980;5.850;2024-03-08T21:31:57;100293.91;;;6.94;64.20
51603;BME280;37954;51.980;5.850;2024-03-08T21:36:09;100315.28;;;7.01;65.27
51603;BME280;37954;51.980;5.850;2024-03-08T21:40:21;100328.41;;;7.03;64.80
51603;BME280;37954;51.980;5.850;2024-03-08T21:44:34;100324.50;;;6.98;65.40
51603;BME280;37954;51.980;5.850;2024-03-08T21:49:03;100323.69;;;6.98;65.50
51603;BME280;37954;51.980;5.850;2024-03-08T21:53:15;100305.03;;;6.91;66.03
51603;BME280;37954;51.980;5.850;2024-03-08T21:57:41;100314.25;;;7.02;66.09
51603;BME280;37954;51.980;5.850;2024-03-08T22:01:54;100311.16;;;6.98;66.08
51603;BME280;37954;51.980;5.850;2024-03-08T22:06:06;100315.06;;;6.96;66.40
51603;BME280;37954;51.980;5.850;2024-03-08T22:10:22;100320.00;;;6.99;66.11
51603;BME280;37954;51.980;5.850;2024-03-08T22:14:39;100314.88;;;6.97;66.53